Time;durP1;ratioP1;P1;durP2;ratioP2;P2;SDS_P1;SDS_P2;PMS_P1;PMS_P2;Temp;Humidity;BMP_temperature;BMP_pressure;BME280_temperature;BME280_humidity;BME280_pressure;Samples;Min_cycle;Max_cycle;Signal;HPM_P1;HPM_P2
2023/09/17 00:00:28;;;;;;;25.07;8.40;;;;;;;23.79;72.08;99402.28;5076139;28;20101;-77
2023/09/17 00:02:55;;;;;;;25.97;9.57;;;;;;;23.72;72.27;99390.22;5075913;28;20438;-77
2023/09/17 00:05:21;;;;;;;31.25;9.40;;;;;;;23.72;72.27;99384.00;5075835;28;20024;-77
2023/09/17 00:07:46;;;;;;;30.20;9.52;;;;;;;23.71;71.95;99385.81;5076011;28;20081;-77
2023/09/17 00:10:11;;;;;;;26.47;9.10;;;;;;;23.74;72.01;99382.91;5070093;28;20047;-78
2023/09/17 00:12:37;;;;;;;25.37;8.73;;;;;;;23.74;72.03;99385.59;5055619;28;20033;-77
2023/09/17 00:15:03;;;;;;;26.73;8.33;;;;;;;23.73;72.30;99386.56;5055708;28;20025;-78
2023/09/17 00:17:28;;;;;;;22.77;8.65;;;;;;;23.74;72.39;99390.97;5055895;28;20016;-79
2023/09/17 00:19:54;;;;;;;22.27;8.43;;;;;;;23.68;72.63;99390.59;5055833;28;20165;-77
2023/09/17 00:22:19;;;;;;;30.83;9.63;;;;;;;23.67;72.60;99392.41;5055752;28;20033;-77
2023/09/17 00:24:44;;;;;;;26.15;8.70;;;;;;;23.65;72.25;99380.91;5055808;28;20408;-77
2023/09/17 00:27:10;;;;;;;31.27;8.57;;;;;;;23.66;72.33;99377.25;5055325;28;20029;-76
2023/09/17 00:29:35;;;;;;;25.30;10.00;;;;;;;23.60;72.60;99373.16;5055626;28;20117;-78
2023/09/17 00:32:01;;;;;;;25.87;9.50;;;;;;;23.58;73.05;99377.81;5055066;28;20037;-80
2023/09/17 00:34:26;;;;;;;24.38;9.43;;;;;;;23.58;72.86;99383.19;5057615;28;20421;-78
2023/09/17 00:36:51;;;;;;;26.87;9.73;;;;;;;23.56;73.04;99377.06;5055737;28;20092;-77
2023/09/17 00:39:17;;;;;;;28.53;9.37;;;;;;;23.59;72.85;99378.69;5055592;28;20111;-79
2023/09/17 00:41:43;;;;;;;26.45;8.88;;;;;;;23.58;72.78;99374.28;5065030;28;20052;-77
2023/09/17 00:44:09;;;;;;;22.20;8.87;;;;;;;23.51;73.22;99369.34;5075438;28;20023;-78
2023/09/17 00:46:35;;;;;;;23.98;8.70;;;;;;;23.55;72.95;99367.28;5075570;28;20099;-79
2023/09/17 00:49:01;;;;;;;26.83;9.35;;;;;;;23.51;73.02;99358.59;5068587;28;20051;-77
2023/09/17 00:51:27;;;;;;;32.33;9.20;;;;;;;23.54;72.65;99372.78;5055378;28;20380;-77
2023/09/17 00:53:56;;;;;;;23.95;9.60;;;;;;;23.53;72.98;99365.69;5055596;28;20028;-77
2023/09/17 00:56:23;;;;;;;26.02;8.95;;;;;;;23.52;72.88;99367.50;5064937;28;20021;-77
2023/09/17 00:58:50;;;;;;;25.77;8.67;;;;;;;23.47;73.24;99359.78;5071554;28;20021;-77
2023/09/17 01:01:16;;;;;;;29.98;9.45;;;;;;;23.38;73.62;99352.38;5072312;28;20074;-77
2023/09/17 01:03:42;;;;;;;27.73;9.27;;;;;;;23.44;73.30;99360.00;5072029;28;20128;-79
2023/09/17 01:06:10;;;;;;;25.37;9.20;;;;;;;23.45;73.19;99356.34;5071908;28;20393;-77
2023/09/17 01:08:36;;;;;;;23.08;9.00;;;;;;;23.48;73.08;99358.81;5072024;28;20039;-78
2023/09/17 01:11:02;;;;;;;22.00;8.98;;;;;;;23.43;73.21;99363.66;5059450;28;20025;-77
2023/09/17 01:13:28;;;;;;;24.40;9.43;;;;;;;23.42;73.03;99361.94;5052065;28;20079;-77
2023/09/17 01:15:53;;;;;;;29.90;9.10;;;;;;;23.41;73.08;99365.59;5052187;28;20025;-77
2023/09/17 01:18:22;;;;;;;28.73;8.83;;;;;;;23.41;73.17;99370.97;5051937;28;20512;-77
2023/09/17 01:21:16;;;;;;;25.83;9.20;;;;;;;23.40;73.27;99374.63;5052034;28;20036;-79
2023/09/17 01:23:49;;;;;;;33.72;10.45;;;;;;;23.34;73.57;99369.69;5051754;28;20044;-78
2023/09/17 01:26:24;;;;;;;30.73;10.10;;;;;;;23.32;73.58;99366.28;5051619;28;20032;-78
2023/09/17 01:28:52;;;;;;;31.20;9.45;;;;;;;23.33;73.44;99368.00;5051662;28;20025;-77
2023/09/17 01:31:18;;;;;;;23.83;8.97;;;;;;;23.32;73.26;99377.03;5053492;28;20329;-77
2023/09/17 01:33:43;;;;;;;32.70;9.40;;;;;;;23.33;73.33;99381.41;5051938;28;20375;-77
2023/09/17 01:36:19;;;;;;;29.80;8.73;;;;;;;23.32;73.51;99374.34;5051681;28;20029;-77
2023/09/17 01:38:48;;;;;;;29.63;8.95;;;;;;;23.30;73.23;99368.22;5067262;28;20028;-77
2023/09/17 01:41:16;;;;;;;25.83;8.83;;;;;;;23.28;73.71;99373.69;5053314;28;20040;-78
2023/09/17 01:43:43;;;;;;;28.30;9.68;;;;;;;23.25;73.57;99370.31;5071276;28;20040;-78
2023/09/17 01:46:09;;;;;;;30.38;9.90;;;;;;;23.22;73.73;99372.25;5071300;28;20072;-77
2023/09/17 01:48:35;;;;;;;31.77;10.23;;;;;;;23.26;73.57;99381.00;5068080;28;20061;-78
2023/09/17 01:51:02;;;;;;;30.00;9.95;;;;;;;23.26;73.43;99374.75;5051373;28;20056;-77
2023/09/17 01:53:28;;;;;;;33.25;9.85;;;;;;;23.27;73.35;99374.66;5051151;28;20032;-77
2023/09/17 01:55:56;;;;;;;31.45;9.95;;;;;;;23.29;73.34;99371.88;5057153;28;20108;-77
2023/09/17 01:58:22;;;;;;;28.53;9.60;;;;;;;23.30;73.46;99368.22;5071052;28;20035;-77
2023/09/17 02:00:49;;;;;;;29.52;8.95;;;;;;;23.31;73.23;99364.56;5070870;28;20596;-76
2023/09/17 02:03:14;;;;;;;34.50;10.00;;;;;;;23.29;73.29;99361.13;5070546;28;20044;-79
2023/09/17 02:05:40;;;;;;;27.40;9.50;;;;;;;23.28;73.41;99372.84;5070820;28;20032;-77
2023/09/17 02:08:05;;;;;;;32.38;9.20;;;;;;;23.27;73.12;99369.28;5071035;28;20028;-77
2023/09/17 02:10:31;;;;;;;28.83;9.30;;;;;;;23.27;73.49;99358.53;5062405;28;20085;-78
2023/09/17 02:12:56;;;;;;;35.73;9.80;;;;;;;23.30;73.23;99357.47;5050877;28;20032;-77
2023/09/17 02:15:21;;;;;;;30.30;9.40;;;;;;;23.24;73.67;99347.97;5050717;28;20025;-77
2023/09/17 02:17:50;;;;;;;26.23;9.50;;;;;;;23.24;73.74;99356.03;5050562;28;20029;-77
2023/09/17 02:20:16;;;;;;;32.92;10.48;;;;;;;23.25;73.48;99364.94;5050482;28;20087;-78
2023/09/17 02:22:41;;;;;;;25.53;9.27;;;;;;;23.26;73.52;99372.06;5050572;28;20029;-77
2023/09/17 02:25:07;;;;;;;28.70;11.10;;;;;;;23.18;73.97;99368.06;5050470;28;20074;-79
2023/09/17 02:27:34;;;;;;;27.25;9.02;;;;;;;23.27;73.38;99368.41;5051978;28;20037;-77
2023/09/17 02:30:00;;;;;;;33.22;10.75;;;;;;;23.26;73.45;99355.94;5050434;28;20239;-79
2023/09/17 02:32:25;;;;;;;28.53;9.03;;;;;;;23.23;73.25;99352.47;5050696;28;20103;-79
2023/09/17 02:34:51;;;;;;;31.52;10.13;;;;;;;23.26;73.62;99346.06;5064975;28;20051;-77
2023/09/17 02:37:16;;;;;;;30.50;10.03;;;;;;;23.22;73.74;99347.25;5070443;28;20025;-80
2023/09/17 02:39:44;;;;;;;26.13;9.37;;;;;;;23.27;73.31;99349.59;5070302;28;20094;-77
2023/09/17 02:42:10;;;;;;;30.35;9.45;;;;;;;23.27;73.34;99349.59;5070263;28;20048;-77
2023/09/17 02:44:35;;;;;;;25.83;9.20;;;;;;;23.25;73.44;99355.09;5070696;28;20032;-77
2023/09/17 02:47:02;;;;;;;28.87;10.30;;;;;;;23.23;73.59;99357.00;5070164;28;20047;-77
2023/09/17 02:49:28;;;;;;;34.93;10.37;;;;;;;23.22;73.78;99353.44;5059862;28;20346;-77
2023/09/17 02:51:53;;;;;;;31.23;9.50;;;;;;;23.20;73.70;99352.72;5050064;28;20555;-77
2023/09/17 02:54:19;;;;;;;30.67;9.93;;;;;;;23.21;73.64;99365.16;5032363;28;20052;-77
2023/09/17 02:56:44;;;;;;;27.23;9.90;;;;;;;23.21;73.49;99349.06;5062815;28;20477;-77
2023/09/17 02:59:09;;;;;;;33.47;9.30;;;;;;;23.23;73.65;99357.00;5069674;28;20082;-78
2023/09/17 03:01:35;;;;;;;28.38;9.20;;;;;;;23.21;73.82;99354.41;5069961;28;20024;-77
2023/09/17 03:04:04;;;;;;;28.37;9.03;;;;;;;23.21;73.53;99349.06;5070085;28;20418;-77
2023/09/17 03:06:33;;;;;;;38.58;10.40;;;;;;;23.20;73.72;99351.88;5069854;28;20526;-77
2023/09/17 03:08:59;;;;;;;32.75;9.50;;;;;;;23.19;73.62;99351.00;5070190;28;20491;-77
2023/09/17 03:11:26;;;;;;;24.73;9.40;;;;;;;23.15;73.83;99354.88;5054196;28;20032;-77
2023/09/17 03:13:52;;;;;;;32.65;9.20;;;;;;;23.15;73.77;99352.19;5050087;28;20025;-77
2023/09/17 03:16:18;;;;;;;37.38;9.75;;;;;;;23.16;73.88;99351.22;5031865;28;20066;-78
2023/09/17 03:18:44;;;;;;;33.72;10.20;;;;;;;23.16;74.03;99345.84;5050102;28;20291;-78
2023/09/17 03:21:11;;;;;;;29.30;9.87;;;;;;;23.14;73.94;99334.34;5049090;28;20238;-77
2023/09/17 03:23:37;;;;;;;25.35;9.32;;;;;;;23.14;73.98;99337.03;5051372;28;20031;-78
2023/09/17 03:26:04;;;;;;;29.85;8.77;;;;;;;23.13;73.96;99343.38;5049868;28;20025;-77
2023/09/17 03:28:30;;;;;;;34.78;10.02;;;;;;;23.12;73.85;99346.16;5049429;28;20100;-78
2023/09/17 03:30:56;;;;;;;33.25;10.30;;;;;;;23.14;73.76;99339.72;5062757;28;20037;-77
2023/09/17 03:33:22;;;;;;;32.40;10.03;;;;;;;23.12;73.93;99336.28;5069553;28;20028;-78
2023/09/17 03:35:48;;;;;;;32.63;10.05;;;;;;;23.11;74.04;99329.22;5069459;28;20032;-78
2023/09/17 03:38:13;;;;;;;28.77;10.70;;;;;;;23.07;73.99;99330.41;5069345;28;20032;-78
2023/09/17 03:40:39;;;;;;;29.17;9.53;;;;;;;23.06;74.14;99336.75;5069489;28;20033;-77
2023/09/17 03:43:05;;;;;;;27.63;9.52;;;;;;;23.05;74.17;99332.34;5069496;28;20048;-77
2023/09/17 03:45:31;;;;;;;33.47;9.77;;;;;;;23.05;74.01;99326.97;5051346;28;20075;-77
2023/09/17 03:47:56;;;;;;;29.52;9.68;;;;;;;23.06;74.22;99317.94;5069386;28;20396;-78
2023/09/17 03:50:21;;;;;;;31.00;8.80;;;;;;;23.06;73.96;99320.63;5051438;28;20029;-79
2023/09/17 03:52:51;;;;;;;30.10;9.53;;;;;;;23.07;73.97;99322.34;5049096;28;20283;-77
2023/09/17 03:55:16;;;;;;;29.05;9.25;;;;;;;23.06;74.02;99323.31;5049504;28;20021;-77
2023/09/17 03:57:42;;;;;;;33.28;10.00;;;;;;;23.04;74.19;99333.31;5069151;28;20037;-80
2023/09/17 04:00:10;;;;;;;35.23;10.63;;;;;;;23.04;74.58;99327.94;5069322;28;20469;-82
2023/09/17 04:02:39;;;;;;;31.33;9.88;;;;;;;23.00;74.39;99329.97;5069140;28;20077;-82
2023/09/17 04:05:10;;;;;;;30.80;9.40;;;;;;;22.98;74.62;99331.03;5069469;28;20028;-77
2023/09/17 04:07:36;;;;;;;32.40;11.15;;;;;;;22.94;74.82;99325.03;5069390;28;20025;-79
2023/09/17 04:10:02;;;;;;;33.73;10.70;;;;;;;22.92;74.69;99329.66;5064814;28;20032;-78
2023/09/17 04:12:28;;;;;;;30.55;10.85;;;;;;;22.88;75.36;99331.69;5031008;28;20052;-80
2023/09/17 04:14:55;;;;;;;32.42;10.32;;;;;;;22.85;75.23;99339.09;5049040;28;20464;-77
2023/09/17 04:17:21;;;;;;;32.63;11.20;;;;;;;22.81;75.39;99335.78;5049106;28;20021;-78
2023/09/17 04:19:46;;;;;;;31.08;10.18;;;;;;;22.81;75.09;99333.09;5051008;28;20029;-77
2023/09/17 04:22:11;;;;;;;31.17;9.90;;;;;;;22.83;75.25;99335.66;5049134;28;20412;-78
2023/09/17 04:24:38;;;;;;;35.67;11.20;;;;;;;22.81;75.29;99333.09;5049025;28;20029;-77
2023/09/17 04:27:04;;;;;;;29.25;10.10;;;;;;;22.82;75.27;99337.50;5060752;28;20564;-77
2023/09/17 04:29:29;;;;;;;26.38;10.80;;;;;;;22.79;75.29;99329.69;5068846;28;20106;-77
2023/09/17 04:31:55;;;;;;;37.50;10.87;;;;;;;22.82;75.21;99326.78;5068484;28;20459;-77
2023/09/17 04:34:22;;;;;;;32.55;10.75;;;;;;;22.79;75.22;99330.53;5072316;28;20044;-78
2023/09/17 04:36:48;;;;;;;33.23;10.40;;;;;;;22.80;75.56;99326.03;5072777;28;20027;-78
2023/09/17 04:39:14;;;;;;;34.13;10.15;;;;;;;22.80;75.27;99331.41;5072590;28;20021;-78
2023/09/17 04:41:40;;;;;;;35.22;10.25;;;;;;;22.75;75.70;99318.28;5072762;28;20054;-77
2023/09/17 04:44:10;;;;;;;38.33;10.20;;;;;;;22.75;75.41;99320.97;5072713;28;20032;-78
2023/09/17 04:46:40;;;;;;;29.10;9.55;;;;;;;22.76;75.40;99321.81;5072504;28;20032;-77
2023/09/17 04:49:06;;;;;;;33.80;10.80;;;;;;;22.72;75.58;99328.38;5064961;28;20021;-77
2023/09/17 04:51:32;;;;;;;33.97;11.35;;;;;;;22.75;75.42;99317.41;5052279;28;20025;-77
2023/09/17 04:53:58;;;;;;;29.92;11.07;;;;;;;22.76;75.19;99317.31;5052339;28;20554;-77
2023/09/17 04:56:23;;;;;;;31.27;10.27;;;;;;;22.75;75.27;99312.03;5062523;28;20052;-78
2023/09/17 04:58:49;;;;;;;32.00;9.67;;;;;;;22.77;75.33;99305.63;5072576;28;20052;-77
2023/09/17 05:01:14;;;;;;;33.27;10.63;;;;;;;22.77;75.30;99302.06;5072139;28;20263;-77
2023/09/17 05:03:42;;;;;;;36.50;10.13;;;;;;;22.78;75.35;99306.47;5072142;28;20029;-77
2023/09/17 05:06:07;;;;;;;41.35;11.07;;;;;;;22.78;75.25;99309.16;5072087;28;20534;-77
2023/09/17 05:08:32;;;;;;;27.83;9.70;;;;;;;22.82;75.40;99310.66;5072016;28;20028;-77
2023/09/17 05:10:58;;;;;;;41.33;10.43;;;;;;;22.80;75.31;99301.88;5042003;28;20079;-77
2023/09/17 05:13:23;;;;;;;30.67;10.33;;;;;;;22.78;75.50;99298.41;5051438;28;20041;-77
2023/09/17 05:15:49;;;;;;;33.90;11.13;;;;;;;22.80;75.40;99297.34;5053399;28;20696;-77
2023/09/17 05:18:14;;;;;;;39.47;10.70;;;;;;;22.80;75.48;99296.50;5052430;28;20112;-79
2023/09/17 05:20:44;;;;;;;31.20;10.77;;;;;;;22.82;75.64;99291.88;5051238;28;20029;-80
2023/09/17 05:23:11;;;;;;;37.40;10.65;;;;;;;22.78;75.46;99295.72;5062134;28;20033;-78
2023/09/17 05:25:36;;;;;;;42.65;11.32;;;;;;;22.79;75.42;99297.47;5068167;28;20396;-78
2023/09/17 05:28:06;;;;;;;35.80;10.90;;;;;;;22.82;75.43;99293.69;5059263;28;20020;-78
2023/09/17 05:30:33;;;;;;;34.17;11.32;;;;;;;22.82;75.43;99299.94;5053663;28;20041;-80
2023/09/17 05:32:58;;;;;;;34.03;10.10;;;;;;;22.79;75.73;99300.16;5050812;28;20555;-78
2023/09/17 05:35:23;;;;;;;33.60;10.10;;;;;;;22.82;75.49;99302.63;5051473;28;20029;-79
2023/09/17 05:37:49;;;;;;;36.13;11.67;;;;;;;22.80;75.69;99299.19;5057237;28;20040;-78
2023/09/17 05:40:14;;;;;;;32.43;11.03;;;;;;;22.78;75.33;99319.88;5051154;28;20029;-79
2023/09/17 05:42:40;;;;;;;37.70;10.87;;;;;;;22.79;75.63;99317.09;5049727;28;20033;-78
2023/09/17 05:45:05;;;;;;;31.90;10.93;;;;;;;22.79;75.65;99313.56;5049514;28;20326;-75
2023/09/17 05:47:31;;;;;;;37.10;10.33;;;;;;;22.80;75.54;99312.59;5049309;28;20021;-76
2023/09/17 05:49:58;;;;;;;37.17;10.43;;;;;;;22.76;75.77;99306.59;5063888;28;20480;-77
2023/09/17 05:52:23;;;;;;;36.65;10.45;;;;;;;22.78;75.63;99311.81;5069636;28;20127;-77
2023/09/17 05:54:49;;;;;;;31.80;10.37;;;;;;;22.79;75.63;99316.25;5069543;28;20128;-77
2023/09/17 05:57:15;;;;;;;34.37;10.63;;;;;;;22.81;75.16;99319.69;5053914;28;20071;-77
2023/09/17 05:59:41;;;;;;;33.88;11.13;;;;;;;22.83;75.47;99322.25;5050743;28;20062;-77
2023/09/17 06:02:07;;;;;;;43.30;11.93;;;;;;;22.76;76.42;99337.91;5050986;28;20033;-76
2023/09/17 06:04:33;;;;;;;38.08;11.27;;;;;;;22.80;75.83;99321.50;5051159;28;20025;-77
2023/09/17 06:06:58;;;;;;;33.00;11.00;;;;;;;22.80;75.53;99318.81;5050861;28;20098;-77
2023/09/17 06:09:24;;;;;;;35.13;10.77;;;;;;;22.78;75.86;99327.94;5063480;28;20021;-77
2023/09/17 06:11:49;;;;;;;33.13;11.07;;;;;;;22.80;75.91;99339.44;5033496;28;20044;-78
2023/09/17 06:14:15;;;;;;;31.93;9.77;;;;;;;22.81;75.82;99341.16;5049406;28;20025;-77
2023/09/17 06:16:40;;;;;;;34.03;10.00;;;;;;;22.81;75.69;99341.16;5050339;28;20112;-79
2023/09/17 06:19:06;;;;;;;34.57;10.63;;;;;;;22.82;75.69;99332.16;5057887;28;20020;-76
2023/09/17 06:21:33;;;;;;;33.67;9.87;;;;;;;22.83;75.86;99336.53;5070644;28;20082;-76
2023/09/17 06:23:58;;;;;;;35.97;10.13;;;;;;;22.88;75.35;99336.19;5071020;28;20488;-80
2023/09/17 06:26:23;;;;;;;29.80;9.90;;;;;;;22.88;75.46;99339.75;5058703;28;20116;-79
2023/09/17 06:28:49;;;;;;;34.37;10.20;;;;;;;22.87;75.36;99340.72;5049278;28;20056;-80
2023/09/17 06:31:14;;;;;;;29.17;9.70;;;;;;;22.87;75.41;99340.72;5048132;28;20068;-79
2023/09/17 06:33:40;;;;;;;34.58;9.73;;;;;;;22.91;75.18;99341.38;5049147;28;20040;-84
2023/09/17 06:36:05;;;;;;;35.23;9.87;;;;;;;22.92;75.42;99337.72;5049263;28;20079;-79
2023/09/17 06:38:31;;;;;;;36.93;10.23;;;;;;;22.94;75.24;99333.94;5049219;28;20021;-79
2023/09/17 06:40:56;;;;;;;36.42;9.98;;;;;;;23.03;75.00;99342.31;5049999;28;20375;-80
2023/09/17 06:43:22;;;;;;;28.73;9.67;;;;;;;23.06;74.70;99326.00;5050244;28;20032;-79
2023/09/17 06:45:48;;;;;;;30.45;9.93;;;;;;;23.04;74.81;99319.88;5050517;28;20021;-80
2023/09/17 06:48:14;;;;;;;34.73;9.87;;;;;;;23.08;74.67;99332.13;5050285;28;20029;-79
2023/09/17 06:50:39;;;;;;;32.75;9.50;;;;;;;23.14;74.45;99322.75;5070556;28;20029;-79
2023/09/17 06:53:05;;;;;;;34.23;9.90;;;;;;;23.18;74.41;99317.03;5070200;28;20383;-80
2023/09/17 06:55:30;;;;;;;39.97;10.43;;;;;;;23.19;74.55;99318.75;5066713;28;20279;-80
2023/09/17 06:57:55;;;;;;;33.97;10.33;;;;;;;23.17;74.80;99320.69;5049974;28;20147;-79
2023/09/17 07:00:21;;;;;;;39.77;10.27;;;;;;;23.23;74.57;99325.63;5050051;28;20025;-79
2023/09/17 07:02:46;;;;;;;41.43;10.33;;;;;;;23.25;74.42;99316.59;5049925;28;20259;-80
2023/09/17 07:05:12;;;;;;;37.93;10.80;;;;;;;23.31;74.56;99321.56;5050013;28;20311;-81
2023/09/17 07:07:37;;;;;;;35.30;9.80;;;;;;;23.36;74.03;99327.47;5052055;28;20386;-79
2023/09/17 07:10:04;;;;;;;37.05;10.57;;;;;;;23.44;74.27;99317.00;5054695;28;20058;-81
2023/09/17 07:12:29;;;;;;;35.35;10.40;;;;;;;23.49;74.14;99320.22;5069816;28;20047;-79
2023/09/17 07:14:55;;;;;;;36.87;10.70;;;;;;;23.56;73.70;99320.63;5069543;28;20489;-79
2023/09/17 07:17:20;;;;;;;34.90;9.97;;;;;;;23.61;73.64;99314.91;5069456;28;20074;-80
2023/09/17 07:19:46;;;;;;;38.03;10.27;;;;;;;23.65;73.53;99319.09;5069715;28;20029;-80
2023/09/17 07:22:14;;;;;;;34.33;8.87;;;;;;;23.66;73.19;99315.44;5069742;28;20087;-80
2023/09/17 07:24:43;;;;;;;38.20;10.02;;;;;;;23.70;73.02;99322.28;5069924;28;20066;-80
2023/09/17 07:27:08;;;;;;;37.03;10.50;;;;;;;23.72;73.15;99327.56;5053469;28;20622;-77
2023/09/17 07:29:33;;;;;;;37.17;10.43;;;;;;;23.72;72.95;99333.78;5049501;28;20070;-78
2023/09/17 07:31:59;;;;;;;37.10;10.63;;;;;;;23.73;73.30;99326.59;5049041;28;20520;-77
2023/09/17 07:34:26;;;;;;;31.30;9.37;;;;;;;23.77;72.87;99328.94;5049503;28;20032;-78
2023/09/17 07:36:53;;;;;;;39.40;9.88;;;;;;;23.84;72.64;99325.78;5049281;28;20082;-78
2023/09/17 07:39:18;;;;;;;39.60;9.75;;;;;;;23.92;72.68;99328.75;5031515;28;20029;-78
2023/09/17 07:41:44;;;;;;;38.80;9.57;;;;;;;23.93;72.39;99325.09;5049544;28;20032;-77
2023/09/17 07:44:09;;;;;;;40.40;10.77;;;;;;;24.00;72.12;99323.69;5049409;28;20072;-78
2023/09/17 07:46:35;;;;;;;38.20;9.88;;;;;;;24.07;71.60;99326.75;5049404;28;20554;-76
2023/09/17 07:49:00;;;;;;;38.57;10.03;;;;;;;24.12;71.54;99310.28;5055670;28;20400;-77
2023/09/17 07:51:26;;;;;;;37.20;9.23;;;;;;;24.20;71.56;99308.72;5069187;28;20032;-77
2023/09/17 07:53:51;;;;;;;34.40;8.90;;;;;;;24.42;70.94;99306.22;5069284;28;20021;-77
2023/09/17 07:56:17;;;;;;;31.07;8.40;;;;;;;24.64;70.43;99295.47;5060160;28;20893;-77
2023/09/17 07:58:42;;;;;;;32.90;9.03;;;;;;;24.73;70.14;99310.06;5049270;28;20112;-80
2023/09/17 08:01:07;;;;;;;32.07;9.33;;;;;;;24.74;69.33;99321.69;5049186;28;20066;-77
2023/09/17 08:03:33;;;;;;;32.75;9.15;;;;;;;24.75;69.42;99324.28;5050897;28;20025;-83
2023/09/17 08:05:59;;;;;;;31.43;9.00;;;;;;;24.76;69.28;99327.84;5049551;28;20068;-78
2023/09/17 08:08:26;;;;;;;32.25;9.00;;;;;;;24.84;69.31;99324.53;5052761;28;20074;-79
2023/09/17 08:10:52;;;;;;;26.87;8.30;;;;;;;24.98;68.89;99328.84;5064089;28;20031;-78
2023/09/17 08:13:17;;;;;;;31.70;8.00;;;;;;;25.07;68.72;99320.00;5072951;28;20025;-78
2023/09/17 08:15:43;;;;;;;43.10;8.77;;;;;;;25.13;68.63;99330.28;5073121;28;20031;-79
2023/09/17 08:18:08;;;;;;;34.17;8.90;;;;;;;25.32;67.76;99321.59;5072807;28;20020;-79
2023/09/17 08:20:34;;;;;;;37.50;9.67;;;;;;;25.47;67.42;99315.94;5072940;28;20060;-78
2023/09/17 08:22:59;;;;;;;36.50;8.30;;;;;;;25.55;67.00;99318.88;5073128;28;20090;-78
2023/09/17 08:25:26;;;;;;;32.13;8.50;;;;;;;25.55;66.63;99320.72;5070807;28;20020;-78
2023/09/17 08:27:52;;;;;;;32.77;8.80;;;;;;;25.54;66.74;99308.22;5034728;28;20055;-78
2023/09/17 08:30:19;;;;;;;36.20;8.05;;;;;;;25.61;66.54;99325.59;5052591;28;20052;-79
2023/09/17 08:32:45;;;;;;;32.15;8.43;;;;;;;25.63;66.43;99319.09;5052395;28;20040;-78
2023/09/17 08:35:14;;;;;;;38.90;8.57;;;;;;;25.72;65.57;99322.88;5053039;28;20033;-79
2023/09/17 08:37:40;;;;;;;33.90;7.95;;;;;;;25.80;65.54;99315.00;5052734;28;20029;-78
2023/09/17 08:40:09;;;;;;;31.25;8.27;;;;;;;25.80;65.47;99336.56;5053127;28;20044;-79
2023/09/17 08:42:37;;;;;;;40.38;8.65;;;;;;;25.84;65.26;99323.69;5052799;28;20051;-78
2023/09/17 08:45:04;;;;;;;37.47;8.45;;;;;;;25.93;65.53;99314.84;5052441;28;20025;-78
2023/09/17 08:47:30;;;;;;;35.00;8.87;;;;;;;26.00;65.36;99330.50;5052501;28;20019;-79
2023/09/17 08:49:55;;;;;;;35.25;8.75;;;;;;;26.09;64.50;99319.78;5066625;28;20478;-79
2023/09/17 08:52:23;;;;;;;34.30;7.93;;;;;;;26.13;64.78;99316.81;5072214;28;20039;-78
2023/09/17 08:54:49;;;;;;;32.72;8.95;;;;;;;26.16;64.43;99313.84;5072441;28;20024;-81
2023/09/17 08:57:20;;;;;;;35.03;8.47;;;;;;;26.28;64.44;99329.06;5055361;28;20036;-78
2023/09/17 09:00:01;;;;;;;30.65;7.85;;;;;;;26.45;64.15;99324.06;5054172;28;20025;-78
2023/09/17 09:02:31;;;;;;;33.03;7.47;;;;;;;26.53;62.79;99316.16;5052442;28;20039;-84
2023/09/17 09:04:57;;;;;;;32.25;7.75;;;;;;;26.62;62.87;99304.53;5052242;28;20029;-85
2023/09/17 09:07:23;;;;;;;24.42;7.50;;;;;;;26.65;62.98;99288.09;5056240;28;20392;-79
2023/09/17 09:09:51;;;;;;;27.57;7.60;;;;;;;26.56;62.86;99288.88;5070000;28;20059;-79
2023/09/17 09:12:17;;;;;;;35.20;7.78;;;;;;;26.62;62.32;99293.75;5051989;28;20082;-78
2023/09/17 09:14:44;;;;;;;29.30;7.18;;;;;;;26.60;62.17;99295.72;5052012;28;20230;-80
2023/09/17 09:17:11;;;;;;;31.73;7.82;;;;;;;26.66;62.64;99288.94;5052181;28;20025;-79
2023/09/17 09:19:37;;;;;;;36.78;8.35;;;;;;;26.65;63.01;99298.91;5051227;28;20031;-79
2023/09/17 09:22:02;;;;;;;29.63;8.10;;;;;;;26.65;62.60;99293.50;5051892;28;20420;-84
2023/09/17 09:24:45;;;;;;;24.50;7.43;;;;;;;26.58;62.03;99292.31;5051939;28;20033;-89
2023/09/17 09:27:10;;;;;;;33.20;7.60;;;;;;;26.58;62.18;99297.69;5051530;28;20484;-85
2023/09/17 09:29:36;;;;;;;39.03;7.70;;;;;;;26.70;61.92;99290.38;5051848;28;20083;-85
2023/09/17 09:32:02;;;;;;;32.60;7.80;;;;;;;26.77;62.08;99307.78;5051682;28;20060;-89
2023/09/17 09:34:28;;;;;;;26.08;7.22;;;;;;;26.97;61.50;99291.66;5051842;28;20033;-85
2023/09/17 09:36:54;;;;;;;30.13;7.67;;;;;;;27.12;60.96;99294.00;5051735;28;20028;-81
2023/09/17 09:39:20;;;;;;;29.63;7.68;;;;;;;27.18;60.88;99305.13;5051456;28;20205;-87
2023/09/17 09:41:46;;;;;;;32.13;7.88;;;;;;;27.35;60.19;99300.91;5052393;28;20052;-87
2023/09/17 09:44:12;;;;;;;32.55;7.55;;;;;;;27.31;59.62;99304.00;5053854;28;20025;-82
2023/09/17 09:46:37;;;;;;;34.73;8.40;;;;;;;27.60;59.20;99301.41;5051590;28;20029;-79
2023/09/17 09:49:04;;;;;;;30.27;7.70;;;;;;;27.73;59.83;99290.31;5058667;28;20033;-79
2023/09/17 09:51:31;;;;;;;29.15;7.68;;;;;;;27.78;58.76;99288.03;5071214;28;20047;-79
2023/09/17 09:53:57;;;;;;;29.67;6.88;;;;;;;27.80;58.87;99296.84;5071581;28;20043;-87
2023/09/17 09:56:27;;;;;;;29.10;7.07;;;;;;;27.85;59.13;99306.38;5063849;28;20048;-87
2023/09/17 09:58:54;;;;;;;25.70;6.90;;;;;;;27.96;58.80;99298.16;5051485;28;20267;-79
2023/09/17 10:01:20;;;;;;;37.63;8.38;;;;;;;27.98;58.25;99288.03;5051165;28;20389;-80
2023/09/17 10:03:47;;;;;;;34.33;7.53;;;;;;;28.08;58.34;99293.44;5056391;28;20031;-80
2023/09/17 10:06:13;;;;;;;26.57;7.03;;;;;;;28.16;57.92;99290.91;5070969;28;20263;-79
2023/09/17 10:08:40;;;;;;;30.05;7.47;;;;;;;28.21;58.00;99279.66;5070931;28;20016;-80
2023/09/17 10:11:07;;;;;;;25.60;7.43;;;;;;;28.23;57.88;99291.19;5058170;28;20032;-87
2023/09/17 10:13:33;;;;;;;26.27;7.07;;;;;;;28.14;57.84;99281.19;5032951;28;20052;-79
2023/09/17 10:16:00;;;;;;;37.47;7.25;;;;;;;28.27;57.68;99284.47;5050880;28;20087;-81
2023/09/17 10:18:27;;;;;;;29.07;7.37;;;;;;;28.28;57.80;99280.75;5050811;28;20025;-78
2023/09/17 10:20:54;;;;;;;29.08;6.90;;;;;;;28.34;57.81;99274.78;5051163;28;20028;-79
2023/09/17 10:23:22;;;;;;;31.55;7.25;;;;;;;28.30;57.55;99284.19;5050656;28;20028;-79
2023/09/17 10:25:49;;;;;;;30.10;6.88;;;;;;;28.33;57.77;99281.19;5050632;28;20248;-80
2023/09/17 10:28:15;;;;;;;26.52;7.40;;;;;;;28.27;57.42;99272.81;5050682;28;20044;-79
2023/09/17 10:30:45;;;;;;;27.50;6.83;;;;;;;28.17;57.60;99283.66;5050570;28;20040;-79
2023/09/17 10:33:13;;;;;;;35.72;7.32;;;;;;;28.01;57.31;99279.63;5050432;28;20130;-79
2023/09/17 10:35:39;;;;;;;28.92;6.85;;;;;;;27.66;58.25;99275.66;5050585;28;20032;-79
2023/09/17 10:38:07;;;;;;;31.90;8.15;;;;;;;27.61;58.86;99256.25;5050529;28;20519;-79
2023/09/17 10:40:33;;;;;;;31.60;7.32;;;;;;;27.50;59.17;99260.78;5050471;28;20433;-79
2023/09/17 10:43:02;;;;;;;25.37;6.63;;;;;;;27.54;59.03;99255.13;5050757;28;20036;-80
2023/09/17 10:45:32;;;;;;;25.08;6.60;;;;;;;27.66;59.16;99264.84;5050367;28;20561;-78
2023/09/17 10:48:00;;;;;;;26.83;6.88;;;;;;;27.75;58.68;99261.25;5050307;28;20029;-79
2023/09/17 10:50:29;;;;;;;26.02;6.40;;;;;;;27.86;58.56;99259.44;5068544;28;20012;-78
2023/09/17 10:52:55;;;;;;;26.05;6.35;;;;;;;28.01;58.42;99266.09;5043483;28;20044;-79
2023/09/17 10:55:22;;;;;;;30.20;7.40;;;;;;;27.97;58.25;99266.50;5051406;28;20029;-79
2023/09/17 10:57:59;;;;;;;32.55;7.15;;;;;;;27.90;58.33;99266.25;5069929;28;20051;-79
2023/09/17 11:00:25;;;;;;;29.67;6.97;;;;;;;28.01;58.38;99249.84;5069876;28;20035;-79
2023/09/17 11:02:58;;;;;;;32.08;7.47;;;;;;;28.07;57.45;99257.41;5069914;28;20111;-79
2023/09/17 11:05:27;;;;;;;35.85;7.53;;;;;;;28.12;57.56;99264.25;5070150;28;20028;-79
2023/09/17 11:07:58;;;;;;;28.88;7.22;;;;;;;28.02;57.27;99253.44;5070051;28;20388;-79
2023/09/17 11:10:24;;;;;;;31.50;6.97;;;;;;;27.93;57.19;99261.41;5062685;28;20025;-79
2023/09/17 11:12:51;;;;;;;29.93;7.63;;;;;;;27.98;57.21;99244.75;5050033;28;20037;-79
2023/09/17 11:15:17;;;;;;;34.58;7.53;;;;;;;28.12;57.15;99243.44;5049708;28;20075;-81
2023/09/17 11:17:45;;;;;;;30.98;6.80;;;;;;;28.19;56.92;99249.16;5049645;28;20079;-84